sensor_id;sensor_type;location;lat;lon;timestamp;P1;durP1;ratioP1;P2;durP2;ratioP2
76848;SDS011;65814;51.134;16.980;2023-10-19T00:01:18;27.10;;;14.10;;
76848;SDS011;65814;51.134;16.980;2023-10-19T00:03:46;26.60;;;14.90;;
76848;SDS011;65814;51.134;16.980;2023-10-19T00:06:17;26.20;;;13.90;;
76848;SDS011;65814;51.134;16.980;2023-10-19T00:08:45;24.20;;;12.50;;
76848;SDS011;65814;51.134;16.980;2023-10-19T00:11:14;27.50;;;14.70;;
76848;SDS011;65814;51.134;16.980;2023-10-19T00:13:53;23.90;;;14.90;;
76848;SDS011;65814;51.134;16.980;2023-10-19T00:16:22;22.70;;;13.40;;
76848;SDS011;65814;51.134;16.980;2023-10-19T00:18:51;25.60;;;13.70;;
76848;SDS011;65814;51.134;16.980;2023-10-19T00:21:20;25.50;;;13.60;;
76848;SDS011;65814;51.134;16.980;2023-10-19T00:23:54;24.60;;;14.10;;
76848;SDS011;65814;51.134;16.980;2023-10-19T00:26:25;28.40;;;14.90;;
76848;SDS011;65814;51.134;16.980;2023-10-19T00:28:54;24.40;;;13.90;;
76848;SDS011;65814;51.134;16.980;2023-10-19T00:31:25;29.30;;;17.00;;
76848;SDS011;65814;51.134;16.980;2023-10-19T00:34:01;25.10;;;14.20;;
76848;SDS011;65814;51.134;16.980;2023-10-19T00:36:30;26.10;;;14.50;;
76848;SDS011;65814;51.134;16.980;2023-10-19T00:38:59;25.30;;;15.20;;
76848;SDS011;65814;51.134;16.980;2023-10-19T00:41:29;23.60;;;15.10;;
76848;SDS011;65814;51.134;16.980;2023-10-19T00:43:58;25.60;;;13.90;;
76848;SDS011;65814;51.134;16.980;2023-10-19T00:46:40;24.20;;;15.00;;
76848;SDS011;65814;51.134;16.980;2023-10-19T00:49:17;25.50;;;13.70;;
76848;SDS011;65814;51.134;16.980;2023-10-19T00:51:51;28.20;;;14.90;;
76848;SDS011;65814;51.134;16.980;2023-10-19T00:57:02;25.60;;;14.00;;
76848;SDS011;65814;51.134;16.980;2023-10-19T00:59:33;23.40;;;14.10;;
76848;SDS011;65814;51.134;16.980;2023-10-19T01:02:15;21.70;;;13.50;;
76848;SDS011;65814;51.134;16.980;2023-10-19T01:05:04;25.20;;;13.50;;
76848;SDS011;65814;51.134;16.980;2023-10-19T01:07:35;25.00;;;13.00;;
76848;SDS011;65814;51.134;16.980;2023-10-19T01:10:06;23.00;;;13.80;;
76848;SDS011;65814;51.134;16.980;2023-10-19T01:12:49;26.40;;;13.30;;
76848;SDS011;65814;51.134;16.980;2023-10-19T01:15:18;25.50;;;14.90;;
76848;SDS011;65814;51.134;16.980;2023-10-19T01:17:50;27.30;;;14.90;;
76848;SDS011;65814;51.134;16.980;2023-10-19T01:20:21;24.80;;;12.90;;
76848;SDS011;65814;51.134;16.980;2023-10-19T01:22:53;26.70;;;13.70;;
76848;SDS011;65814;51.134;16.980;2023-10-19T01:25:49;24.70;;;13.40;;
76848;SDS011;65814;51.134;16.980;2023-10-19T01:28:31;26.20;;;14.40;;
76848;SDS011;65814;51.134;16.980;2023-10-19T01:31:13;26.80;;;14.20;;
76848;SDS011;65814;51.134;16.980;2023-10-19T01:33:58;20.10;;;11.90;;
76848;SDS011;65814;51.134;16.980;2023-10-19T01:36:29;23.60;;;12.70;;
76848;SDS011;65814;51.134;16.980;2023-10-19T01:39:00;26.20;;;14.10;;
76848;SDS011;65814;51.134;16.980;2023-10-19T01:41:29;23.80;;;14.10;;
76848;SDS011;65814;51.134;16.980;2023-10-19T01:44:00;25.70;;;13.90;;
76848;SDS011;65814;51.134;16.980;2023-10-19T01:46:36;22.90;;;14.00;;
76848;SDS011;65814;51.134;16.980;2023-10-19T01:49:05;22.00;;;13.90;;
76848;SDS011;65814;51.134;16.980;2023-10-19T01:51:36;23.60;;;13.80;;
76848;SDS011;65814;51.134;16.980;2023-10-19T01:54:06;25.40;;;13.90;;
76848;SDS011;65814;51.134;16.980;2023-10-19T01:56:35;22.50;;;12.90;;
76848;SDS011;65814;51.134;16.980;2023-10-19T01:59:04;27.30;;;14.00;;
76848;SDS011;65814;51.134;16.980;2023-10-19T02:01:32;24.60;;;13.10;;
76848;SDS011;65814;51.134;16.980;2023-10-19T02:04:02;25.10;;;14.10;;
76848;SDS011;65814;51.134;16.980;2023-10-19T02:06:33;25.30;;;14.00;;
76848;SDS011;65814;51.134;16.980;2023-10-19T02:11:37;25.00;;;14.30;;
76848;SDS011;65814;51.134;16.980;2023-10-19T02:14:14;24.00;;;13.90;;
76848;SDS011;65814;51.134;16.980;2023-10-19T02:16:44;22.10;;;12.80;;
76848;SDS011;65814;51.134;16.980;2023-10-19T02:19:15;21.80;;;12.90;;
76848;SDS011;65814;51.134;16.980;2023-10-19T02:21:43;24.50;;;14.00;;
76848;SDS011;65814;51.134;16.980;2023-10-19T02:24:14;26.90;;;14.20;;
76848;SDS011;65814;51.134;16.980;2023-10-19T02:26:43;22.80;;;12.90;;
76848;SDS011;65814;51.134;16.980;2023-10-19T02:29:14;23.60;;;14.90;;
76848;SDS011;65814;51.134;16.980;2023-10-19T02:31:43;26.70;;;13.30;;
76848;SDS011;65814;51.134;16.980;2023-10-19T02:34:11;24.10;;;13.80;;
76848;SDS011;65814;51.134;16.980;2023-10-19T02:36:43;22.40;;;12.50;;
76848;SDS011;65814;51.134;16.980;2023-10-19T02:39:12;27.40;;;15.00;;
76848;SDS011;65814;51.134;16.980;2023-10-19T02:41:56;28.00;;;14.00;;
76848;SDS011;65814;51.134;16.980;2023-10-19T02:44:24;25.80;;;13.50;;
76848;SDS011;65814;51.134;16.980;2023-10-19T02:46:54;25.40;;;13.40;;
76848;SDS011;65814;51.134;16.980;2023-10-19T02:49:37;25.50;;;14.20;;
76848;SDS011;65814;51.134;16.980;2023-10-19T02:52:11;25.00;;;14.30;;
76848;SDS011;65814;51.134;16.980;2023-10-19T02:54:41;27.80;;;14.70;;
76848;SDS011;65814;51.134;16.980;2023-10-19T02:57:09;26.20;;;15.50;;
76848;SDS011;65814;51.134;16.980;2023-10-19T02:59:40;25.90;;;14.50;;
76848;SDS011;65814;51.134;16.980;2023-10-19T03:02:09;25.80;;;14.20;;
76848;SDS011;65814;51.134;16.980;2023-10-19T03:04:40;24.80;;;14.60;;
76848;SDS011;65814;51.134;16.980;2023-10-19T03:07:10;27.30;;;15.70;;
76848;SDS011;65814;51.134;16.980;2023-10-19T03:09:41;28.40;;;15.50;;
76848;SDS011;65814;51.134;16.980;2023-10-19T03:12:21;27.70;;;15.40;;
76848;SDS011;65814;51.134;16.980;2023-10-19T03:14:54;28.80;;;15.20;;
76848;SDS011;65814;51.134;16.980;2023-10-19T03:17:23;27.90;;;15.60;;
76848;SDS011;65814;51.134;16.980;2023-10-19T03:19:53;25.10;;;16.10;;
76848;SDS011;65814;51.134;16.980;2023-10-19T03:22:22;26.60;;;14.70;;
76848;SDS011;65814;51.134;16.980;2023-10-19T03:24:50;27.60;;;15.70;;
76848;SDS011;65814;51.134;16.980;2023-10-19T03:27:38;25.60;;;14.80;;
76848;SDS011;65814;51.134;16.980;2023-10-19T03:30:07;32.80;;;15.50;;
76848;SDS011;65814;51.134;16.980;2023-10-19T03:32:36;22.60;;;14.20;;
76848;SDS011;65814;51.134;16.980;2023-10-19T03:35:04;27.70;;;16.00;;
76848;SDS011;65814;51.134;16.980;2023-10-19T03:37:33;28.40;;;17.30;;
76848;SDS011;65814;51.134;16.980;2023-10-19T03:40:03;28.40;;;17.20;;
76848;SDS011;65814;51.134;16.980;2023-10-19T03:42:36;28.40;;;17.00;;
76848;SDS011;65814;51.134;16.980;2023-10-19T03:45:14;30.20;;;17.10;;
76848;SDS011;65814;51.134;16.980;2023-10-19T03:47:43;28.00;;;16.20;;
76848;SDS011;65814;51.134;16.980;2023-10-19T03:50:17;29.60;;;17.20;;
76848;SDS011;65814;51.134;16.980;2023-10-19T03:52:50;35.60;;;18.30;;
76848;SDS011;65814;51.134;16.980;2023-10-19T03:55:20;33.10;;;19.60;;
76848;SDS011;65814;51.134;16.980;2023-10-19T03:57:57;27.60;;;15.60;;
76848;SDS011;65814;51.134;16.980;2023-10-19T04:01:16;31.20;;;17.40;;
76848;SDS011;65814;51.134;16.980;2023-10-19T04:29:51;31.30;;;17.00;;
76848;SDS011;65814;51.134;16.980;2023-10-19T04:32:23;30.40;;;16.60;;
76848;SDS011;65814;51.134;16.980;2023-10-19T04:34:55;35.10;;;18.80;;
76848;SDS011;65814;51.134;16.980;2023-10-19T04:37:24;27.70;;;15.50;;
76848;SDS011;65814;51.134;16.980;2023-10-19T04:39:52;31.20;;;17.10;;
76848;SDS011;65814;51.134;16.980;2023-10-19T04:42:20;30.90;;;17.00;;
76848;SDS011;65814;51.134;16.980;2023-10-19T04:44:50;31.90;;;17.70;;
76848;SDS011;65814;51.134;16.980;2023-10-19T04:47:18;33.10;;;17.50;;
76848;SDS011;65814;51.134;16.980;2023-10-19T04:49:47;29.50;;;17.10;;
76848;SDS011;65814;51.134;16.980;2023-10-19T04:52:16;36.50;;;18.10;;
76848;SDS011;65814;51.134;16.980;2023-10-19T04:54:44;29.00;;;16.10;;
76848;SDS011;65814;51.134;16.980;2023-10-19T04:57:12;31.10;;;17.10;;
76848;SDS011;65814;51.134;16.980;2023-10-19T04:59:41;29.90;;;17.80;;
76848;SDS011;65814;51.134;16.980;2023-10-19T05:02:13;31.00;;;17.80;;
76848;SDS011;65814;51.134;16.980;2023-10-19T05:04:42;32.70;;;17.40;;
76848;SDS011;65814;51.134;16.980;2023-10-19T05:07:11;31.40;;;18.40;;
76848;SDS011;65814;51.134;16.980;2023-10-19T05:09:48;28.90;;;18.00;;
76848;SDS011;65814;51.134;16.980;2023-10-19T05:12:16;32.50;;;17.80;;
76848;SDS011;65814;51.134;16.980;2023-10-19T05:14:44;31.70;;;18.80;;
76848;SDS011;65814;51.134;16.980;2023-10-19T05:17:13;32.60;;;18.50;;
76848;SDS011;65814;51.134;16.980;2023-10-19T05:19:41;33.90;;;18.60;;
76848;SDS011;65814;51.134;16.980;2023-10-19T05:22:09;32.40;;;18.30;;
76848;SDS011;65814;51.134;16.980;2023-10-19T05:24:37;31.70;;;19.70;;
76848;SDS011;65814;51.134;16.980;2023-10-19T05:27:06;36.70;;;18.50;;
76848;SDS011;65814;51.134;16.980;2023-10-19T05:29:37;37.60;;;18.70;;
76848;SDS011;65814;51.134;16.980;2023-10-19T05:32:07;36.60;;;18.80;;
76848;SDS011;65814;51.134;16.980;2023-10-19T05:34:37;33.20;;;18.00;;
76848;SDS011;65814;51.134;16.980;2023-10-19T05:37:05;31.00;;;17.60;;
76848;SDS011;65814;51.134;16.980;2023-10-19T05:39:33;30.20;;;17.50;;
76848;SDS011;65814;51.134;16.980;2023-10-19T05:42:01;31.60;;;17.10;;
76848;SDS011;65814;51.134;16.980;2023-10-19T05:44:29;32.90;;;18.60;;
76848;SDS011;65814;51.134;16.980;2023-10-19T05:46:59;27.20;;;16.70;;
76848;SDS011;65814;51.134;16.980;2023-10-19T05:49:29;32.90;;;17.50;;
76848;SDS011;65814;51.134;16.980;2023-10-19T05:52:00;32.00;;;18.90;;
76848;SDS011;65814;51.134;16.980;2023-10-19T05:54:30;32.70;;;17.50;;
76848;SDS011;65814;51.134;16.980;2023-10-19T05:56:59;34.50;;;19.10;;
76848;SDS011;65814;51.134;16.980;2023-10-19T05:59:27;29.50;;;17.40;;
76848;SDS011;65814;51.134;16.980;2023-10-19T06:01:57;31.80;;;19.20;;
76848;SDS011;65814;51.134;16.980;2023-10-19T06:04:25;29.10;;;17.50;;
76848;SDS011;65814;51.134;16.980;2023-10-19T06:06:53;34.30;;;17.50;;
76848;SDS011;65814;51.134;16.980;2023-10-19T06:09:21;32.80;;;17.50;;
76848;SDS011;65814;51.134;16.980;2023-10-19T06:11:57;36.60;;;19.00;;
76848;SDS011;65814;51.134;16.980;2023-10-19T06:14:25;38.60;;;18.20;;
76848;SDS011;65814;51.134;16.980;2023-10-19T06:16:53;35.00;;;17.70;;
76848;SDS011;65814;51.134;16.980;2023-10-19T06:19:21;30.50;;;17.50;;
76848;SDS011;65814;51.134;16.980;2023-10-19T06:21:50;31.90;;;18.00;;
76848;SDS011;65814;51.134;16.980;2023-10-19T06:24:18;30.50;;;18.20;;
76848;SDS011;65814;51.134;16.980;2023-10-19T06:26:46;33.30;;;17.40;;
76848;SDS011;65814;51.134;16.980;2023-10-19T06:29:14;33.60;;;17.80;;
76848;SDS011;65814;51.134;16.980;2023-10-19T06:31:42;31.40;;;17.80;;
76848;SDS011;65814;51.134;16.980;2023-10-19T06:34:11;31.40;;;18.40;;
76848;SDS011;65814;51.134;16.980;2023-10-19T06:36:39;35.80;;;18.70;;
76848;SDS011;65814;51.134;16.980;2023-10-19T06:39:08;32.90;;;18.00;;
76848;SDS011;65814;51.134;16.980;2023-10-19T06:41:36;29.90;;;19.60;;
76848;SDS011;65814;51.134;16.980;2023-10-19T06:44:05;30.60;;;17.80;;
76848;SDS011;65814;51.134;16.980;2023-10-19T06:46:33;33.30;;;18.10;;
76848;SDS011;65814;51.134;16.980;2023-10-19T06:49:03;34.50;;;16.90;;
76848;SDS011;65814;51.134;16.980;2023-10-19T06:51:31;32.90;;;17.20;;
76848;SDS011;65814;51.134;16.980;2023-10-19T06:54:01;32.60;;;17.40;;
76848;SDS011;65814;51.134;16.980;2023-10-19T06:56:29;33.20;;;18.70;;
76848;SDS011;65814;51.134;16.980;2023-10-19T06:58:58;28.70;;;16.80;;
76848;SDS011;65814;51.134;16.980;2023-10-19T07:01:26;32.90;;;15.90;;
76848;SDS011;65814;51.134;16.980;2023-10-19T07:03:57;34.50;;;18.60;;
76848;SDS011;65814;51.134;16.980;2023-10-19T07:06:26;34.90;;;18.50;;
76848;SDS011;65814;51.134;16.980;2023-10-19T07:08:54;30.70;;;18.30;;
76848;SDS011;65814;51.134;16.980;2023-10-19T07:11:22;33.50;;;17.50;;
76848;SDS011;65814;51.134;16.980;2023-10-19T07:13:51;31.10;;;18.60;;
76848;SDS011;65814;51.134;16.980;2023-10-19T07:16:20;31.30;;;18.00;;
76848;SDS011;65814;51.134;16.980;2023-10-19T07:18:48;36.40;;;20.40;;
76848;SDS011;65814;51.134;16.980;2023-10-19T07:21:19;35.50;;;20.50;;
76848;SDS011;65814;51.134;16.980;2023-10-19T07:23:46;34.90;;;19.10;;
76848;SDS011;65814;51.134;16.980;2023-10-19T07:26:17;32.40;;;19.50;;
76848;SDS011;65814;51.134;16.980;2023-10-19T07:28:45;28.70;;;16.20;;
76848;SDS011;65814;51.134;16.980;2023-10-19T07:31:13;28.70;;;17.60;;
76848;SDS011;65814;51.134;16.980;2023-10-19T07:33:43;38.50;;;17.90;;
76848;SDS011;65814;51.134;16.980;2023-10-19T07:36:13;34.50;;;19.90;;
76848;SDS011;65814;51.134;16.980;2023-10-19T07:38:42;31.00;;;17.20;;
76848;SDS011;65814;51.134;16.980;2023-10-19T07:41:10;33.70;;;19.20;;
76848;SDS011;65814;51.134;16.980;2023-10-19T07:43:38;32.50;;;18.80;;
76848;SDS011;65814;51.134;16.980;2023-10-19T07:46:06;33.00;;;19.40;;
76848;SDS011;65814;51.134;16.980;2023-10-19T07:48:36;37.20;;;19.90;;
76848;SDS011;65814;51.134;16.980;2023-10-19T07:51:04;36.70;;;19.30;;
76848;SDS011;65814;51.134;16.980;2023-10-19T07:53:33;30.40;;;20.40;;
76848;SDS011;65814;51.134;16.980;2023-10-19T07:56:04;28.60;;;18.30;;
76848;SDS011;65814;51.134;16.980;2023-10-19T07:58:32;30.60;;;18.60;;
76848;SDS011;65814;51.134;16.980;2023-10-19T08:01:02;31.90;;;18.30;;
76848;SDS011;65814;51.134;16.980;2023-10-19T08:03:30;36.20;;;18.50;;
76848;SDS011;65814;51.134;16.980;2023-10-19T08:05:58;39.80;;;20.00;;
76848;SDS011;65814;51.134;16.980;2023-10-19T08:08:26;33.90;;;19.00;;
76848;SDS011;65814;51.134;16.980;2023-10-19T08:11:01;30.70;;;18.40;;
76848;SDS011;65814;51.134;16.980;2023-10-19T08:13:30;30.70;;;17.90;;
76848;SDS011;65814;51.134;16.980;2023-10-19T08:16:00;32.40;;;18.60;;
76848;SDS011;65814;51.134;16.980;2023-10-19T08:18:29;27.70;;;17.00;;
76848;SDS011;65814;51.134;16.980;2023-10-19T08:20:58;33.30;;;18.90;;
76848;SDS011;65814;51.134;16.980;2023-10-19T08:23:26;34.50;;;19.40;;
76848;SDS011;65814;51.134;16.980;2023-10-19T08:25:55;30.90;;;19.30;;
76848;SDS011;65814;51.134;16.980;2023-10-19T08:28:24;31.70;;;18.20;;
76848;SDS011;65814;51.134;16.980;2023-10-19T08:30:53;36.00;;;20.90;;
76848;SDS011;65814;51.134;16.980;2023-10-19T08:33:30;29.00;;;18.40;;
76848;SDS011;65814;51.134;16.980;2023-10-19T08:36:01;29.20;;;18.60;;
76848;SDS011;65814;51.134;16.980;2023-10-19T08:38:30;27.70;;;17.40;;
76848;SDS011;65814;51.134;16.980;2023-10-19T08:40:58;33.10;;;18.00;;
76848;SDS011;65814;51.134;16.980;2023-10-19T08:43:28;29.90;;;18.30;;
76848;SDS011;65814;51.134;16.980;2023-10-19T08:45:56;32.70;;;19.40;;
76848;SDS011;65814;51.134;16.980;2023-10-19T08:48:25;31.60;;;17.80;;
76848;SDS011;65814;51.134;16.980;2023-10-19T08:50:53;35.00;;;17.90;;
76848;SDS011;65814;51.134;16.980;2023-10-19T08:53:23;27.90;;;18.10;;
76848;SDS011;65814;51.134;16.980;2023-10-19T08:55:52;30.20;;;18.40;;
76848;SDS011;65814;51.134;16.980;2023-10-19T08:58:22;31.00;;;18.60;;
76848;SDS011;65814;51.134;16.980;2023-10-19T09:00:50;29.50;;;16.80;;
76848;SDS011;65814;51.134;16.980;2023-10-19T09:06:01;29.80;;;18.00;;
76848;SDS011;65814;51.134;16.980;2023-10-19T09:08:32;38.20;;;19.20;;
76848;SDS011;65814;51.134;16.980;2023-10-19T09:11:07;38.10;;;19.50;;
76848;SDS011;65814;51.134;16.980;2023-10-19T09:13:49;34.80;;;20.00;;
76848;SDS011;65814;51.134;16.980;2023-10-19T09:16:21;32.90;;;20.00;;
76848;SDS011;65814;51.134;16.980;2023-10-19T09:18:50;31.30;;;19.50;;
76848;SDS011;65814;51.134;16.980;2023-10-19T09:21:19;35.40;;;20.70;;
76848;SDS011;65814;51.134;16.980;2023-10-19T09:23:56;28.70;;;17.60;;
76848;SDS011;65814;51.134;16.980;2023-10-19T09:26:24;30.10;;;18.50;;
76848;SDS011;65814;51.134;16.980;2023-10-19T09:28:52;27.70;;;17.60;;
76848;SDS011;65814;51.134;16.980;2023-10-19T09:31:22;31.90;;;17.90;;
76848;SDS011;65814;51.134;16.980;2023-10-19T09:33:52;30.70;;;18.70;;
76848;SDS011;65814;51.134;16.980;2023-10-19T09:36:22;31.30;;;18.50;;
76848;SDS011;65814;51.134;16.980;2023-10-19T09:38:53;27.10;;;16.50;;
76848;SDS011;65814;51.134;16.980;2023-10-19T09:41:21;28.90;;;18.80;;
76848;SDS011;65814;51.134;16.980;2023-10-19T09:43:50;35.10;;;21.20;;
76848;SDS011;65814;51.134;16.980;2023-10-19T09:46:22;34.30;;;18.80;;
76848;SDS011;65814;51.134;16.980;2023-10-19T09:51:20;26.70;;;17.20;;
76848;SDS011;65814;51.134;16.980;2023-10-19T09:56:50;32.20;;;18.50;;
76848;SDS011;65814;51.134;16.980;2023-10-19T09:59:32;33.40;;;20.70;;
76848;SDS011;65814;51.134;16.980;2023-10-19T10:02:03;38.90;;;20.10;;
76848;SDS011;65814;51.134;16.980;2023-10-19T10:04:33;31.20;;;19.20;;
76848;SDS011;65814;51.134;16.980;2023-10-19T10:07:06;31.00;;;19.80;;
76848;SDS011;65814;51.134;16.980;2023-10-19T10:09:39;34.90;;;19.80;;
76848;SDS011;65814;51.134;16.980;2023-10-19T10:17:32;31.80;;;19.40;;
76848;SDS011;65814;51.134;16.980;2023-10-19T10:22:43;35.70;;;20.60;;
76848;SDS011;65814;51.134;16.980;2023-10-19T10:25:27;30.80;;;19.40;;
76848;SDS011;65814;51.134;16.980;2023-10-19T10:27:57;33.80;;;20.70;;
76848;SDS011;65814;51.134;16.980;2023-10-19T10:30:25;27.50;;;19.10;;
76848;SDS011;65814;51.134;16.980;2023-10-19T10:32:53;38.00;;;20.40;;
76848;SDS011;65814;51.134;16.980;2023-10-19T10:36:10;34.80;;;21.30;;
76848;SDS011;65814;51.134;16.980;2023-10-19T10:38:21;35.70;;;20.80;;
76848;SDS011;65814;51.134;16.980;2023-10-19T10:40:50;31.80;;;21.10;;
76848;SDS011;65814;51.134;16.980;2023-10-19T10:43:18;31.40;;;19.40;;
76848;SDS011;65814;51.134;16.980;2023-10-19T10:45:47;32.30;;;20.90;;
76848;SDS011;65814;51.134;16.980;2023-10-19T10:48:16;32.60;;;19.60;;
76848;SDS011;65814;51.134;16.980;2023-10-19T10:50:47;31.20;;;19.70;;
76848;SDS011;65814;51.134;16.980;2023-10-19T10:53:14;38.00;;;21.70;;
76848;SDS011;65814;51.134;16.980;2023-10-19T10:55:43;29.40;;;20.90;;
76848;SDS011;65814;51.134;16.980;2023-10-19T10:58:15;36.00;;;21.70;;
76848;SDS011;65814;51.134;16.980;2023-10-19T11:00:43;31.80;;;20.20;;
76848;SDS011;65814;51.134;16.980;2023-10-19T11:03:13;30.40;;;19.10;;
76848;SDS011;65814;51.134;16.980;2023-10-19T11:05:41;34.70;;;19.70;;
76848;SDS011;65814;51.134;16.980;2023-10-19T11:08:16;36.20;;;20.60;;
76848;SDS011;65814;51.134;16.980;2023-10-19T11:10:45;37.60;;;22.70;;
76848;SDS011;65814;51.134;16.980;2023-10-19T11:13:15;39.80;;;21.50;;
76848;SDS011;65814;51.134;16.980;2023-10-19T11:15:54;35.80;;;21.30;;
76848;SDS011;65814;51.134;16.980;2023-10-19T11:21:05;38.20;;;21.90;;
76848;SDS011;65814;51.134;16.980;2023-10-19T11:23:38;37.30;;;20.90;;
76848;SDS011;65814;51.134;16.980;2023-10-19T11:26:15;38.10;;;21.50;;
76848;SDS011;65814;51.134;16.980;2023-10-19T11:28:45;35.70;;;22.90;;
76848;SDS011;65814;51.134;16.980;2023-10-19T11:31:22;35.50;;;21.90;;
76848;SDS011;65814;51.134;16.980;2023-10-19T11:33:52;31.30;;;20.50;;
76848;SDS011;65814;51.134;16.980;2023-10-19T11:36:22;31.60;;;20.70;;
76848;SDS011;65814;51.134;16.980;2023-10-19T11:38:52;36.00;;;22.60;;
76848;SDS011;65814;51.134;16.980;2023-10-19T11:41:21;35.10;;;22.00;;
76848;SDS011;65814;51.134;16.980;2023-10-19T11:43:51;39.00;;;21.20;;
76848;SDS011;65814;51.134;16.980;2023-10-19T11:46:20;37.60;;;22.40;;
76848;SDS011;65814;51.134;16.980;2023-10-19T11:48:53;36.00;;;23.50;;
76848;SDS011;65814;51.134;16.980;2023-10-19T11:51:21;33.50;;;22.00;;
76848;SDS011;65814;51.134;16.980;2023-10-19T11:53:49;38.50;;;22.00;;
76848;SDS011;65814;51.134;16.980;2023-10-19T11:56:17;33.10;;;22.80;;
76848;SDS011;65814;51.134;16.980;2023-10-19T11:58:45;41.20;;;24.60;;
76848;SDS011;65814;51.134;16.980;2023-10-19T12:01:15;38.70;;;24.40;;
76848;SDS011;65814;51.134;16.980;2023-10-19T12:03:45;33.70;;;23.20;;
76848;SDS011;65814;51.134;16.980;2023-10-19T12:06:14;37.60;;;23.70;;
76848;SDS011;65814;51.134;16.980;2023-10-19T12:08:47;38.20;;;21.40;;
76848;SDS011;65814;51.134;16.980;2023-10-19T12:11:15;38.40;;;22.40;;
76848;SDS011;65814;51.134;16.980;2023-10-19T12:13:45;36.10;;;22.20;;
76848;SDS011;65814;51.134;16.980;2023-10-19T12:16:14;34.70;;;24.00;;
76848;SDS011;65814;51.134;16.980;2023-10-19T12:18:44;36.70;;;23.80;;
76848;SDS011;65814;51.134;16.980;2023-10-19T12:21:12;35.60;;;22.00;;
76848;SDS011;65814;51.134;16.980;2023-10-19T12:23:42;35.30;;;22.10;;
76848;SDS011;65814;51.134;16.980;2023-10-19T12:26:19;36.40;;;20.70;;
76848;SDS011;65814;51.134;16.980;2023-10-19T12:28:48;40.40;;;22.40;;
76848;SDS011;65814;51.134;16.980;2023-10-19T12:31:17;42.20;;;25.20;;
76848;SDS011;65814;51.134;16.980;2023-10-19T12:33:50;33.90;;;20.90;;
76848;SDS011;65814;51.134;16.980;2023-10-19T12:36:18;34.90;;;22.90;;
76848;SDS011;65814;51.134;16.980;2023-10-19T12:38:55;34.20;;;21.90;;
76848;SDS011;65814;51.134;16.980;2023-10-19T12:41:25;38.30;;;20.60;;
76848;SDS011;65814;51.134;16.980;2023-10-19T12:43:53;36.20;;;21.40;;
76848;SDS011;65814;51.134;16.980;2023-10-19T12:46:26;35.10;;;21.50;;
76848;SDS011;65814;51.134;16.980;2023-10-19T12:48:57;32.30;;;20.40;;
76848;SDS011;65814;51.134;16.980;2023-10-19T12:51:26;36.80;;;23.10;;
76848;SDS011;65814;51.134;16.980;2023-10-19T12:53:54;33.80;;;21.60;;
76848;SDS011;65814;51.134;16.980;2023-10-19T12:56:22;31.70;;;19.90;;
76848;SDS011;65814;51.134;16.980;2023-10-19T12:58:57;36.40;;;21.10;;
76848;SDS011;65814;51.134;16.980;2023-10-19T13:01:25;30.40;;;20.10;;
76848;SDS011;65814;51.134;16.980;2023-10-19T13:03:56;34.30;;;21.00;;
76848;SDS011;65814;51.134;16.980;2023-10-19T13:06:24;34.30;;;20.60;;
76848;SDS011;65814;51.134;16.980;2023-10-19T13:08:57;30.30;;;19.10;;
76848;SDS011;65814;51.134;16.980;2023-10-19T13:11:26;34.10;;;19.70;;
76848;SDS011;65814;51.134;16.980;2023-10-19T13:13:55;37.00;;;22.50;;
76848;SDS011;65814;51.134;16.980;2023-10-19T13:16:23;35.40;;;21.20;;
76848;SDS011;65814;51.134;16.980;2023-10-19T13:18:52;35.50;;;19.70;;
76848;SDS011;65814;51.134;16.980;2023-10-19T13:21:21;33.40;;;20.90;;
76848;SDS011;65814;51.134;16.980;2023-10-19T13:23:55;32.60;;;21.00;;
76848;SDS011;65814;51.134;16.980;2023-10-19T13:26:23;37.60;;;23.10;;
76848;SDS011;65814;51.134;16.980;2023-10-19T13:28:51;35.70;;;22.40;;
76848;SDS011;65814;51.134;16.980;2023-10-19T13:31:23;38.70;;;22.90;;
76848;SDS011;65814;51.134;16.980;2023-10-19T13:33:54;38.00;;;21.90;;
76848;SDS011;65814;51.134;16.980;2023-10-19T13:36:22;42.20;;;23.90;;
76848;SDS011;65814;51.134;16.980;2023-10-19T13:38:50;41.80;;;26.50;;
76848;SDS011;65814;51.134;16.980;2023-10-19T13:41:19;41.30;;;24.10;;
76848;SDS011;65814;51.134;16.980;2023-10-19T13:43:47;39.40;;;23.60;;
76848;SDS011;65814;51.134;16.980;2023-10-19T13:46:16;38.10;;;23.80;;
76848;SDS011;65814;51.134;16.980;2023-10-19T13:48:44;38.50;;;22.70;;
76848;SDS011;65814;51.134;16.980;2023-10-19T13:51:15;37.60;;;22.40;;
76848;SDS011;65814;51.134;16.980;2023-10-19T13:53:44;40.00;;;22.80;;
76848;SDS011;65814;51.134;16.980;2023-10-19T13:56:13;37.90;;;22.20;;
76848;SDS011;65814;51.134;16.980;2023-10-19T13:58:42;39.40;;;22.40;;
76848;SDS011;65814;51.134;16.980;2023-10-19T14:01:11;33.80;;;22.30;;
76848;SDS011;65814;51.134;16.980;2023-10-19T14:03:43;34.20;;;20.30;;
76848;SDS011;65814;51.134;16.980;2023-10-19T14:06:13;36.40;;;21.50;;
76848;SDS011;65814;51.134;16.980;2023-10-19T14:08:42;35.40;;;22.50;;
76848;SDS011;65814;51.134;16.980;2023-10-19T14:11:10;33.60;;;21.20;;
76848;SDS011;65814;51.134;16.980;2023-10-19T14:13:39;36.40;;;22.00;;
76848;SDS011;65814;51.134;16.980;2023-10-19T14:16:11;37.60;;;21.20;;
76848;SDS011;65814;51.134;16.980;2023-10-19T14:18:39;38.50;;;22.70;;
76848;SDS011;65814;51.134;16.980;2023-10-19T14:21:14;41.00;;;22.60;;
76848;SDS011;65814;51.134;16.980;2023-10-19T14:23:43;42.30;;;24.10;;
76848;SDS011;65814;51.134;16.980;2023-10-19T14:26:13;42.70;;;24.10;;
76848;SDS011;65814;51.134;16.980;2023-10-19T14:28:42;43.00;;;23.60;;
76848;SDS011;65814;51.134;16.980;2023-10-19T14:31:10;35.60;;;21.00;;
76848;SDS011;65814;51.134;16.980;2023-10-19T14:33:41;38.20;;;22.40;;
76848;SDS011;65814;51.134;16.980;2023-10-19T14:36:09;46.90;;;23.70;;
76848;SDS011;65814;51.134;16.980;2023-10-19T14:38:38;40.80;;;22.30;;
76848;SDS011;65814;51.134;16.980;2023-10-19T14:41:07;31.90;;;22.40;;
76848;SDS011;65814;51.134;16.980;2023-10-19T14:43:37;40.30;;;22.70;;
76848;SDS011;65814;51.134;16.980;2023-10-19T14:46:05;39.90;;;23.60;;
76848;SDS011;65814;51.134;16.980;2023-10-19T14:48:34;42.40;;;24.90;;
76848;SDS011;65814;51.134;16.980;2023-10-19T14:51:03;41.90;;;29.00;;
76848;SDS011;65814;51.134;16.980;2023-10-19T14:53:33;39.20;;;24.00;;
76848;SDS011;65814;51.134;16.980;2023-10-19T14:56:02;36.10;;;24.50;;
76848;SDS011;65814;51.134;16.980;2023-10-19T14:58:30;38.10;;;23.40;;
76848;SDS011;65814;51.134;16.980;2023-10-19T15:00:59;43.60;;;27.40;;
76848;SDS011;65814;51.134;16.980;2023-10-19T15:03:28;43.70;;;27.50;;
76848;SDS011;65814;51.134;16.980;2023-10-19T15:05:56;40.10;;;24.20;;
76848;SDS011;65814;51.134;16.980;2023-10-19T15:08:27;39.00;;;24.40;;
76848;SDS011;65814;51.134;16.980;2023-10-19T15:10:59;41.80;;;25.50;;
76848;SDS011;65814;51.134;16.980;2023-10-19T15:13:27;37.40;;;21.80;;
76848;SDS011;65814;51.134;16.980;2023-10-19T15:15:55;34.60;;;21.80;;
76848;SDS011;65814;51.134;16.980;2023-10-19T15:18:24;36.00;;;21.60;;